Time;durP1;ratioP1;P1;durP2;ratioP2;P2;SDS_P1;SDS_P2;PMS_P1;PMS_P2;Temp;Humidity;BMP_temperature;BMP_pressure;BME280_temperature;BME280_humidity;BME280_pressure;Samples;Min_cycle;Max_cycle;Signal;HPM_P1;HPM_P2
2021/04/20 00:01:31;;;;;;;1.73;1.63;;;6.10;95.10;;;;;;5098599;28;20276;-70
2021/04/20 00:03:57;;;;;;;1.60;1.60;;;6.10;95.30;;;;;;5100880;28;20230;-71
2021/04/20 00:06:23;;;;;;;1.60;1.60;;;6.10;95.20;;;;;;5100682;28;20221;-70
2021/04/20 00:08:49;;;;;;;1.37;1.37;;;6.10;95.30;;;;;;5102710;28;20209;-69
2021/04/20 00:11:15;;;;;;;1.17;1.17;;;6.20;95.30;;;;;;5101229;28;20187;-70
2021/04/20 00:13:41;;;;;;;2.17;1.47;;;6.10;95.40;;;;;;5097397;28;20272;-68
2021/04/20 00:16:07;;;;;;;1.80;1.43;;;6.10;95.40;;;;;;5098927;28;20734;-70
2021/04/20 00:18:32;;;;;;;1.17;1.17;;;6.20;95.40;;;;;;5097536;28;20264;-70
2021/04/20 00:20:58;;;;;;;1.37;1.37;;;6.20;95.30;;;;;;5099258;28;20658;-70
2021/04/20 00:23:24;;;;;;;1.30;1.30;;;6.20;95.30;;;;;;5098419;28;20645;-70
2021/04/20 00:25:49;;;;;;;1.10;1.10;;;6.20;95.20;;;;;;5099697;28;20182;-68
2021/04/20 00:28:25;;;;;;;1.27;1.27;;;6.20;95.00;;;;;;5100836;28;20713;-70
2021/04/20 00:30:51;;;;;;;1.47;1.47;;;6.20;95.00;;;;;;5100321;28;20674;-70
2021/04/20 00:33:18;;;;;;;1.33;1.33;;;6.20;95.00;;;;;;5096198;28;20183;-70
2021/04/20 00:35:44;;;;;;;1.57;1.47;;;6.10;95.00;;;;;;5100847;28;20192;-70
2021/04/20 00:38:10;;;;;;;1.07;1.07;;;6.10;95.20;;;;;;5100488;28;20586;-70
2021/04/20 00:40:36;;;;;;;1.53;1.43;;;6.10;95.10;;;;;;5099515;28;20227;-70
2021/04/20 00:43:01;;;;;;;1.63;1.63;;;6.10;95.00;;;;;;5100814;28;20209;-70
2021/04/20 00:45:32;;;;;;;1.23;1.23;;;6.10;94.80;;;;;;5096969;28;20186;-69
2021/04/20 00:47:58;;;;;;;1.20;1.20;;;6.10;94.70;;;;;;5099892;28;20213;-69
2021/04/20 00:50:27;;;;;;;1.10;1.10;;;6.00;94.80;;;;;;5092111;28;20238;-69
2021/04/20 00:52:52;;;;;;;1.50;1.40;;;6.00;94.90;;;;;;5096167;28;20254;-69
2021/04/20 00:55:19;;;;;;;1.43;1.33;;;6.00;94.80;;;;;;5096711;28;21788;-69
2021/04/20 00:57:45;;;;;;;1.43;1.43;;;6.00;94.90;;;;;;5094609;28;20631;-70
2021/04/20 01:00:14;;;;;;;1.63;1.57;;;5.90;94.90;;;;;;5097594;28;20177;-70
2021/04/20 01:02:40;;;;;;;1.77;1.67;;;5.90;94.80;;;;;;5096335;28;20238;-70
2021/04/20 01:05:09;;;;;;;1.97;1.37;;;5.90;94.90;;;;;;5096081;28;20184;-69
2021/04/20 01:07:35;;;;;;;1.23;1.23;;;5.90;95.00;;;;;;5101270;28;20209;-69
2021/04/20 01:10:02;;;;;;;1.07;1.07;;;6.00;95.00;;;;;;5097051;28;20193;-68
2021/04/20 01:12:28;;;;;;;1.40;1.30;;;5.90;95.10;;;;;;5102083;28;20275;-68
2021/04/20 01:14:55;;;;;;;2.33;2.23;;;5.90;95.00;;;;;;5086651;28;20704;-69
2021/04/20 01:17:26;;;;;;;1.50;1.50;;;5.90;94.90;;;;;;5105122;28;20192;-69
2021/04/20 01:20:05;;;;;;;1.37;1.37;;;5.90;94.90;;;;;;5097897;28;20173;-69
2021/04/20 01:22:33;;;;;;;1.60;1.60;;;5.90;94.80;;;;;;5102740;28;20577;-69
2021/04/20 01:25:00;;;;;;;1.40;1.40;;;5.90;94.90;;;;;;5097661;28;20623;-69
2021/04/20 01:27:26;;;;;;;1.73;1.73;;;5.90;95.00;;;;;;5099395;28;20224;-69
2021/04/20 01:29:56;;;;;;;1.60;1.50;;;6.00;94.90;;;;;;5105127;28;20189;-71
2021/04/20 01:32:22;;;;;;;2.30;2.20;;;5.90;94.80;;;;;;5096730;28;20658;-70
2021/04/20 01:34:48;;;;;;;1.80;1.60;;;5.90;94.90;;;;;;5082668;28;20182;-69
2021/04/20 01:37:13;;;;;;;1.40;1.27;;;6.00;94.80;;;;;;5097880;28;20254;-70
2021/04/20 01:39:43;;;;;;;1.43;1.43;;;5.90;94.70;;;;;;5103420;28;20741;-70
2021/04/20 01:42:09;;;;;;;1.47;1.40;;;5.90;94.70;;;;;;5100734;28;20571;-69
2021/04/20 01:44:35;;;;;;;5.70;2.27;;;5.90;94.70;;;;;;5105027;28;20563;-70
2021/04/20 01:47:01;;;;;;;2.07;1.90;;;5.80;94.80;;;;;;5100574;28;20214;-69
2021/04/20 01:49:27;;;;;;;1.53;1.43;;;5.80;94.90;;;;;;5100564;28;20178;-69
2021/04/20 01:51:53;;;;;;;4.80;2.00;;;5.80;95.00;;;;;;5101361;28;20174;-70
2021/04/20 01:54:19;;;;;;;2.10;2.10;;;5.80;94.90;;;;;;5101843;28;20178;-69
2021/04/20 01:56:47;;;;;;;1.40;1.40;;;5.80;94.80;;;;;;5092894;28;20599;-69
2021/04/20 01:59:14;;;;;;;2.43;2.33;;;5.90;94.80;;;;;;5100919;28;20558;-70
2021/04/20 02:01:41;;;;;;;2.97;2.23;;;5.90;94.80;;;;;;5103347;28;20611;-69
2021/04/20 02:04:08;;;;;;;1.80;1.70;;;5.90;94.70;;;;;;5099892;28;20177;-70
2021/04/20 02:06:34;;;;;;;1.50;1.50;;;5.90;94.70;;;;;;5104047;28;21634;-70
2021/04/20 02:09:01;;;;;;;2.10;2.00;;;5.90;94.70;;;;;;5107154;28;20261;-69
2021/04/20 02:11:27;;;;;;;2.23;2.07;;;5.90;94.70;;;;;;5105410;28;20177;-70
2021/04/20 02:13:52;;;;;;;2.33;2.20;;;5.90;94.70;;;;;;5100819;28;20247;-70
2021/04/20 02:16:20;;;;;;;1.80;1.70;;;5.90;94.60;;;;;;5105031;28;20181;-70
2021/04/20 02:18:49;;;;;;;1.80;1.80;;;5.90;94.60;;;;;;5102913;28;20192;-69
2021/04/20 02:21:17;;;;;;;2.37;2.20;;;5.90;94.60;;;;;;5084577;28;20678;-70
2021/04/20 02:23:44;;;;;;;1.97;1.87;;;5.90;94.50;;;;;;5102984;28;20929;-70
2021/04/20 02:26:12;;;;;;;2.10;2.00;;;5.90;94.30;;;;;;5103334;28;20209;-70
2021/04/20 02:28:38;;;;;;;2.80;1.87;;;5.90;94.40;;;;;;5101291;28;20188;-70
2021/04/20 02:31:06;;;;;;;1.87;1.77;;;5.90;94.40;;;;;;5097194;28;20655;-70
2021/04/20 02:33:33;;;;;;;1.77;1.77;;;5.90;94.30;;;;;;5097285;28;20244;-70
2021/04/20 02:35:59;;;;;;;2.63;2.43;;;5.90;94.20;;;;;;5099430;28;20182;-69
2021/04/20 02:38:26;;;;;;;1.70;1.70;;;5.90;94.20;;;;;;5102700;28;20178;-69
2021/04/20 02:40:57;;;;;;;2.60;2.40;;;5.90;94.10;;;;;;5101407;28;20173;-69
2021/04/20 02:43:24;;;;;;;4.27;2.67;;;5.80;94.00;;;;;;5103654;28;20186;-69
2021/04/20 02:45:56;;;;;;;2.23;2.13;;;5.80;94.20;;;;;;5096322;28;20192;-69
2021/04/20 02:48:22;;;;;;;2.60;2.50;;;5.80;94.20;;;;;;5101815;28;20196;-70
2021/04/20 02:50:50;;;;;;;2.13;2.03;;;5.80;94.30;;;;;;5095139;28;20177;-70
2021/04/20 02:53:16;;;;;;;2.10;2.00;;;5.80;94.30;;;;;;5103268;28;20181;-70
2021/04/20 02:55:43;;;;;;;2.47;2.27;;;5.80;94.20;;;;;;5103098;28;20178;-70
2021/04/20 02:58:17;;;;;;;2.00;1.90;;;5.70;94.30;;;;;;5097290;28;20185;-69
2021/04/20 03:00:45;;;;;;;3.00;2.80;;;5.70;94.40;;;;;;5103174;28;20192;-70
2021/04/20 03:03:14;;;;;;;1.87;1.77;;;5.70;94.40;;;;;;5098814;28;20192;-70
2021/04/20 03:05:40;;;;;;;3.40;3.10;;;5.80;94.50;;;;;;5100929;28;20186;-70
2021/04/20 03:08:06;;;;;;;2.13;2.03;;;5.70;94.40;;;;;;5102197;28;20191;-69
2021/04/20 03:10:33;;;;;;;2.30;2.20;;;5.70;94.50;;;;;;5106587;28;20182;-69
2021/04/20 03:12:59;;;;;;;2.63;2.53;;;5.70;94.50;;;;;;5096572;28;20206;-70
2021/04/20 03:15:26;;;;;;;3.60;2.40;;;5.70;94.40;;;;;;5101340;28;20667;-70
2021/04/20 03:17:52;;;;;;;2.70;2.50;;;5.60;94.50;;;;;;5095784;28;20187;-70
2021/04/20 03:20:19;;;;;;;5.00;3.60;;;5.70;94.60;;;;;;5098794;28;20188;-70
2021/04/20 03:22:46;;;;;;;4.13;3.50;;;5.60;94.60;;;;;;5095154;28;20186;-70
2021/04/20 03:25:30;;;;;;;2.17;2.07;;;5.60;94.70;;;;;;5094228;28;20183;-69
2021/04/20 03:27:59;;;;;;;2.73;2.63;;;5.70;94.70;;;;;;5096964;28;20214;-70
2021/04/20 03:30:27;;;;;;;3.30;2.63;;;5.70;94.70;;;;;;5101536;28;20629;-69
2021/04/20 03:33:37;;;;;;;3.40;3.10;;;5.70;94.70;;;;;;5099580;28;20396;-69
2021/04/20 03:36:16;;;;;;;2.37;2.23;;;5.70;94.60;;;;;;5011918;28;20207;-69
2021/04/20 03:38:56;;;;;;;3.10;2.90;;;5.80;94.60;;;;;;5016871;28;20202;-69
2021/04/20 03:41:54;;;;;;;2.87;2.67;;;5.80;94.60;;;;;;4999069;28;20242;-68
2021/04/20 03:44:42;;;;;;;3.07;2.87;;;5.80;94.50;;;;;;5020661;28;20283;-70
2021/04/20 03:47:15;;;;;;;2.87;2.67;;;5.80;94.60;;;;;;5014914;28;20227;-71
2021/04/20 03:49:43;;;;;;;2.43;2.33;;;5.80;94.50;;;;;;5020118;28;20184;-68
2021/04/20 03:52:44;;;;;;;3.27;2.97;;;5.80;94.30;;;;;;5020456;28;20191;-68
2021/04/20 03:55:14;;;;;;;5.20;3.17;;;5.80;94.20;;;;;;4972838;28;20220;-70
2021/04/20 03:57:43;;;;;;;3.20;3.00;;;5.90;94.30;;;;;;4971757;28;20252;-70
2021/04/20 04:00:11;;;;;;;3.37;3.07;;;5.90;94.20;;;;;;4975706;28;20199;-71
2021/04/20 04:02:39;;;;;;;3.13;2.93;;;5.90;94.20;;;;;;4969102;28;20187;-71
2021/04/20 04:05:10;;;;;;;2.93;2.73;;;5.90;94.00;;;;;;4967293;28;20249;-71
2021/04/20 04:07:38;;;;;;;3.50;3.20;;;6.00;93.80;;;;;;4967819;28;20218;-70
2021/04/20 04:10:06;;;;;;;4.93;4.47;;;6.00;93.80;;;;;;4967810;28;20189;-70
2021/04/20 04:12:37;;;;;;;4.50;4.00;;;5.90;93.80;;;;;;4997942;28;20210;-71
2021/04/20 04:15:05;;;;;;;4.23;3.77;;;6.00;93.70;;;;;;5030677;28;20278;-69
2021/04/20 04:17:32;;;;;;;4.77;3.47;;;5.90;93.70;;;;;;5029359;28;20250;-69
2021/04/20 04:20:01;;;;;;;5.07;4.10;;;6.00;93.50;;;;;;5031582;28;20253;-69
2021/04/20 04:22:34;;;;;;;4.97;3.73;;;5.90;93.50;;;;;;5026574;28;20249;-70
2021/04/20 04:25:04;;;;;;;4.03;3.67;;;5.90;93.70;;;;;;5026692;28;20226;-71
2021/04/20 04:27:35;;;;;;;3.47;3.27;;;5.90;93.80;;;;;;5008885;28;20294;-69
2021/04/20 04:30:06;;;;;;;4.43;4.03;;;5.90;93.70;;;;;;5031297;28;20194;-71
2021/04/20 04:32:34;;;;;;;3.83;3.53;;;5.90;93.90;;;;;;5089210;28;20195;-70
2021/04/20 04:35:05;;;;;;;4.53;3.10;;;5.90;93.80;;;;;;5093873;28;20200;-70
2021/04/20 04:37:32;;;;;;;3.97;3.67;;;5.90;93.80;;;;;;5091871;28;20186;-71
2021/04/20 04:39:58;;;;;;;3.70;3.50;;;5.90;93.80;;;;;;5094232;28;20181;-70
2021/04/20 04:42:24;;;;;;;4.50;4.20;;;5.90;93.90;;;;;;5092599;28;20195;-69
2021/04/20 04:44:51;;;;;;;3.70;3.47;;;5.90;93.90;;;;;;5099057;28;20177;-70
2021/04/20 04:47:17;;;;;;;4.43;4.00;;;5.90;93.90;;;;;;5096339;28;20219;-68
2021/04/20 04:49:46;;;;;;;5.23;4.57;;;5.90;93.80;;;;;;5096321;28;20177;-71
2021/04/20 04:52:14;;;;;;;4.70;4.30;;;5.90;93.70;;;;;;5097167;28;20181;-69
2021/04/20 04:54:42;;;;;;;5.00;4.27;;;5.90;93.70;;;;;;5096290;28;20183;-69
2021/04/20 04:57:10;;;;;;;4.27;4.07;;;5.90;93.70;;;;;;5099619;28;20254;-69
2021/04/20 04:59:38;;;;;;;4.27;4.07;;;5.90;93.80;;;;;;5083128;28;20174;-70
2021/04/20 05:02:06;;;;;;;5.57;4.63;;;5.90;93.90;;;;;;5095138;28;20222;-71
2021/04/20 05:04:32;;;;;;;4.73;4.30;;;5.90;94.00;;;;;;5100112;28;20191;-70
2021/04/20 05:06:58;;;;;;;4.40;3.90;;;5.90;94.10;;;;;;5099044;28;20607;-71
2021/04/20 05:09:24;;;;;;;5.17;4.63;;;6.00;94.20;;;;;;5097244;28;20183;-72
2021/04/20 05:11:51;;;;;;;6.50;5.27;;;6.10;94.10;;;;;;5101745;28;20200;-71
2021/04/20 05:14:20;;;;;;;6.43;5.17;;;6.00;94.20;;;;;;5081808;28;21032;-71
2021/04/20 05:16:50;;;;;;;7.50;5.27;;;6.10;94.40;;;;;;5100129;28;20208;-69
2021/04/20 05:19:31;;;;;;;4.83;4.37;;;6.10;94.40;;;;;;5099892;28;20186;-70
2021/04/20 05:21:57;;;;;;;5.97;4.57;;;6.10;94.40;;;;;;5082547;28;20558;-69
2021/04/20 05:24:23;;;;;;;6.13;4.73;;;6.20;94.50;;;;;;5100986;28;20173;-71
2021/04/20 05:26:49;;;;;;;6.43;4.73;;;6.20;94.40;;;;;;5101925;28;20217;-71
2021/04/20 05:29:15;;;;;;;6.50;4.70;;;6.30;94.20;;;;;;5097434;28;20185;-72
2021/04/20 05:31:43;;;;;;;5.63;5.13;;;6.40;94.10;;;;;;5102523;28;20676;-71
2021/04/20 05:34:08;;;;;;;5.63;5.03;;;6.40;93.70;;;;;;5099552;28;20170;-70
2021/04/20 05:36:35;;;;;;;7.10;5.40;;;6.50;93.40;;;;;;5101939;28;20189;-69
2021/04/20 05:39:07;;;;;;;6.70;5.60;;;6.50;93.20;;;;;;5098039;28;20258;-69
2021/04/20 05:41:35;;;;;;;6.90;5.00;;;6.60;92.90;;;;;;5096161;28;20182;-69
2021/04/20 05:44:03;;;;;;;6.30;5.70;;;6.60;92.80;;;;;;5099449;28;20185;-70
2021/04/20 05:46:29;;;;;;;5.70;5.20;;;6.70;92.70;;;;;;5097400;28;20232;-71
2021/04/20 05:48:57;;;;;;;8.40;5.00;;;6.80;92.60;;;;;;5095477;28;20281;-70
2021/04/20 05:51:24;;;;;;;6.23;5.40;;;6.90;92.30;;;;;;5098697;28;20307;-70
2021/04/20 05:53:52;;;;;;;10.40;5.43;;;7.00;92.00;;;;;;5096161;28;20217;-70
2021/04/20 05:56:19;;;;;;;5.53;5.00;;;7.00;91.60;;;;;;5095609;28;20181;-71
2021/04/20 05:58:46;;;;;;;4.93;4.43;;;7.00;91.30;;;;;;5101178;28;20177;-68
2021/04/20 06:01:12;;;;;;;5.93;5.33;;;7.10;91.20;;;;;;5107315;28;20239;-69
2021/04/20 06:06:26;;;;;;;5.77;5.13;;;7.30;91.20;;;;;;5104300;28;20247;-70
2021/04/20 06:08:53;;;;;;;6.47;5.83;;;7.40;91.00;;;;;;5102173;28;21447;-68
2021/04/20 06:11:20;;;;;;;8.33;5.33;;;7.50;90.60;;;;;;5099109;28;20278;-68
2021/04/20 06:13:46;;;;;;;5.47;4.97;;;7.50;90.50;;;;;;5103450;28;20262;-70
2021/04/20 06:16:13;;;;;;;6.17;5.43;;;7.50;90.20;;;;;;5101457;28;20637;-70
2021/04/20 06:18:39;;;;;;;9.07;5.53;;;7.50;90.40;;;;;;5103461;28;20208;-70
2021/04/20 06:21:07;;;;;;;5.13;4.40;;;7.60;90.10;;;;;;5100601;28;20187;-69
2021/04/20 06:23:34;;;;;;;6.10;5.50;;;7.70;89.20;;;;;;5103539;28;20189;-68
2021/04/20 06:26:02;;;;;;;6.07;5.33;;;7.70;88.30;;;;;;5100685;28;20209;-69
2021/04/20 06:28:29;;;;;;;5.70;5.07;;;7.60;87.80;;;;;;5102469;28;20610;-70
2021/04/20 06:31:02;;;;;;;6.70;5.47;;;7.70;88.00;;;;;;5083435;28;20181;-70
2021/04/20 06:33:32;;;;;;;6.03;5.40;;;7.70;87.90;;;;;;5085506;28;20254;-70
2021/04/20 06:36:01;;;;;;;6.20;5.60;;;7.90;87.70;;;;;;5101759;28;20208;-69
2021/04/20 06:38:29;;;;;;;5.80;5.20;;;7.90;86.70;;;;;;5098987;28;20189;-69
2021/04/20 06:40:56;;;;;;;7.40;5.73;;;8.00;86.10;;;;;;5095616;28;20178;-69
2021/04/20 06:43:34;;;;;;;7.33;5.80;;;8.20;86.90;;;;;;5099490;28;20569;-69
2021/04/20 06:46:13;;;;;;;8.83;5.63;;;8.30;86.10;;;;;;5101079;28;20486;-69
2021/04/20 06:48:48;;;;;;;6.40;5.57;;;8.30;84.90;;;;;;5100931;28;20181;-70
2021/04/20 06:51:44;;;;;;;7.03;5.27;;;8.30;84.90;;;;;;5100614;28;20283;-69
2021/04/20 06:54:20;;;;;;;5.77;5.27;;;8.40;84.90;;;;;;5037851;28;20196;-69
2021/04/20 06:56:54;;;;;;;7.50;5.87;;;8.40;83.80;;;;;;5037338;28;20245;-70
2021/04/20 06:59:56;;;;;;;6.20;5.57;;;8.40;82.50;;;;;;5040698;28;20200;-70
2021/04/20 07:03:07;;;;;;;6.57;5.57;;;8.40;82.60;;;;;;5040433;28;20574;-69
2021/04/20 07:05:32;;;;;;;6.10;4.87;;;8.60;82.60;;;;;;5001060;28;20214;-69
2021/04/20 07:08:25;;;;;;;7.10;5.63;;;8.70;82.10;;;;;;5001916;28;20220;-70
2021/04/20 07:10:53;;;;;;;8.67;6.60;;;8.80;82.30;;;;;;5000235;28;20649;-68
2021/04/20 07:13:25;;;;;;;6.70;6.03;;;9.00;82.80;;;;;;5001757;28;20196;-70
2021/04/20 07:16:04;;;;;;;5.83;5.23;;;9.20;82.20;;;;;;5002093;28;20197;-69
2021/04/20 07:18:41;;;;;;;6.83;6.13;;;9.30;81.40;;;;;;5000448;28;20694;-69
2021/04/20 07:21:48;;;;;;;6.53;5.97;;;9.30;80.60;;;;;;5001588;28;20267;-70
2021/04/20 07:24:20;;;;;;;6.57;6.00;;;9.30;80.90;;;;;;5000918;28;20344;-69
2021/04/20 07:27:01;;;;;;;8.80;7.33;;;9.40;81.00;;;;;;5000918;28;20219;-70
2021/04/20 07:29:42;;;;;;;8.67;6.93;;;9.40;81.40;;;;;;5001313;28;20197;-72
2021/04/20 07:32:31;;;;;;;10.10;6.80;;;9.30;81.20;;;;;;5059423;28;20299;-68
2021/04/20 07:35:53;;;;;;;9.13;6.83;;;9.20;81.60;;;;;;5058500;28;20726;-70
2021/04/20 07:38:54;;;;;;;9.20;6.40;;;9.20;81.00;;;;;;4959671;28;20218;-69
2021/04/20 07:41:43;;;;;;;9.83;6.17;;;9.30;80.80;;;;;;4974217;28;21155;-69
2021/04/20 07:44:12;;;;;;;6.07;5.67;;;9.30;79.10;;;;;;4998605;28;20200;-70
2021/04/20 07:46:44;;;;;;;6.33;5.27;;;9.40;77.60;;;;;;4999410;28;20220;-69
2021/04/20 07:49:15;;;;;;;6.40;5.73;;;9.40;76.90;;;;;;4997903;28;20194;-70
2021/04/20 07:51:53;;;;;;;5.37;4.93;;;9.50;75.90;;;;;;4999803;28;20663;-71
2021/04/20 07:54:19;;;;;;;6.27;5.67;;;9.60;76.50;;;;;;4994160;28;20189;-70
2021/04/20 07:56:49;;;;;;;6.33;5.50;;;9.70;75.50;;;;;;4994362;28;20220;-70
2021/04/20 07:59:43;;;;;;;8.07;6.53;;;9.80;74.10;;;;;;4996623;28;20269;-70
2021/04/20 08:02:35;;;;;;;9.90;6.87;;;9.90;73.40;;;;;;4989020;28;20216;-70
2021/04/20 08:05:23;;;;;;;8.40;6.80;;;10.20;73.90;;;;;;4993346;28;20292;-70
2021/04/20 08:07:54;;;;;;;6.30;5.70;;;10.40;73.60;;;;;;4997071;28;20229;-70
2021/04/20 08:10:33;;;;;;;6.85;6.18;;;10.50;73.40;;;;;;4994101;28;20215;-71
2021/04/20 08:13:16;;;;;;;7.93;6.30;;;10.70;73.60;;;;;;5021888;28;20201;-69
2021/04/20 08:16:09;;;;;;;7.57;6.57;;;10.80;73.60;;;;;;5101345;28;20238;-71
2021/04/20 08:18:44;;;;;;;7.85;6.85;;;10.70;73.60;;;;;;5094653;28;20212;-70
2021/04/20 08:21:12;;;;;;;8.43;6.83;;;10.70;73.50;;;;;;5093468;28;20184;-69
2021/04/20 08:23:44;;;;;;;10.18;7.15;;;10.70;73.60;;;;;;5099490;28;20189;-68
2021/04/20 08:26:15;;;;;;;10.07;6.32;;;10.60;73.50;;;;;;5098944;28;20185;-71
2021/04/20 08:28:57;;;;;;;11.20;7.55;;;10.60;73.80;;;;;;5094984;28;20201;-70
2021/04/20 08:31:38;;;;;;;8.30;7.20;;;10.70;74.00;;;;;;5093875;28;20193;-71
2021/04/20 08:34:25;;;;;;;8.25;6.15;;;10.90;73.90;;;;;;5092749;28;20194;-70
2021/04/20 08:37:03;;;;;;;9.40;6.55;;;11.00;73.60;;;;;;5096421;28;20185;-70
2021/04/20 08:39:44;;;;;;;10.65;6.85;;;11.10;73.20;;;;;;5097712;28;20238;-69
2021/04/20 08:42:22;;;;;;;9.13;7.28;;;11.30;73.10;;;;;;5099778;28;20926;-70
2021/04/20 08:45:03;;;;;;;8.75;7.15;;;11.20;72.70;;;;;;5097921;28;20226;-70
2021/04/20 08:47:55;;;;;;;7.60;6.90;;;11.10;73.30;;;;;;5098639;28;20305;-71
2021/04/20 08:50:26;;;;;;;11.38;6.75;;;11.00;72.90;;;;;;5095112;28;20179;-71
2021/04/20 08:53:25;;;;;;;8.50;7.07;;;10.80;72.30;;;;;;5091322;28;20182;-70
2021/04/20 08:55:57;;;;;;;9.98;7.10;;;10.60;73.30;;;;;;5097827;28;20209;-69
2021/04/20 08:59:00;;;;;;;9.10;6.75;;;10.50;73.80;;;;;;5089972;28;20303;-70
2021/04/20 09:01:32;;;;;;;7.75;6.65;;;10.30;74.40;;;;;;5090730;28;20181;-70
2021/04/20 09:04:13;;;;;;;15.32;7.93;;;10.20;75.00;;;;;;5099526;28;20311;-69
2021/04/20 09:06:49;;;;;;;11.68;7.72;;;10.20;75.70;;;;;;5096569;28;20212;-70
2021/04/20 09:09:17;;;;;;;8.40;7.30;;;10.20;76.20;;;;;;5101911;28;20351;-69
2021/04/20 09:11:48;;;;;;;11.48;8.75;;;10.20;76.20;;;;;;5098684;28;20182;-70
2021/04/20 09:14:38;;;;;;;11.27;7.97;;;10.20;76.50;;;;;;5097775;28;20190;-69
2021/04/20 09:17:09;;;;;;;10.47;7.67;;;10.00;76.90;;;;;;4998576;28;20263;-70
2021/04/20 09:19:41;;;;;;;9.77;7.25;;;10.20;77.50;;;;;;5015091;28;20203;-70
2021/04/20 09:22:08;;;;;;;10.30;8.17;;;10.40;77.40;;;;;;5015486;28;20279;-70
2021/04/20 09:24:58;;;;;;;10.57;8.10;;;10.60;76.70;;;;;;5015133;28;20533;-70
2021/04/20 09:27:51;;;;;;;8.80;7.32;;;10.70;75.60;;;;;;4995986;28;20664;-69
2021/04/20 09:33:20;;;;;;;8.15;7.10;;;11.00;73.90;;;;;;5017512;28;20660;-69
2021/04/20 09:35:48;;;;;;;7.90;6.88;;;11.00;74.10;;;;;;5016156;28;20208;-70
2021/04/20 09:38:16;;;;;;;7.63;6.63;;;11.10;74.00;;;;;;5018238;28;20188;-71
2021/04/20 09:40:45;;;;;;;9.77;6.70;;;11.30;74.40;;;;;;5011280;28;20192;-71
2021/04/20 09:43:28;;;;;;;6.47;5.88;;;11.50;73.40;;;;;;5017138;28;20193;-70
2021/04/20 09:46:08;;;;;;;7.30;6.28;;;11.70;71.40;;;;;;5012737;28;20196;-70
2021/04/20 09:48:48;;;;;;;8.02;6.70;;;11.70;70.90;;;;;;5014261;28;20291;-70
2021/04/20 09:51:21;;;;;;;8.50;6.57;;;11.80;70.80;;;;;;5017108;28;20242;-70
2021/04/20 09:54:25;;;;;;;10.18;6.82;;;12.00;69.70;;;;;;5043301;28;20729;-68
2021/04/20 09:56:56;;;;;;;7.97;6.45;;;12.10;69.50;;;;;;4985674;28;20431;-67
2021/04/20 09:59:45;;;;;;;8.45;7.45;;;12.10;69.10;;;;;;4988238;28;20241;-68
2021/04/20 10:02:25;;;;;;;7.78;6.13;;;12.20;69.40;;;;;;4986066;28;20671;-69
2021/04/20 10:05:09;;;;;;;8.55;7.03;;;12.50;70.80;;;;;;4987779;28;20672;-69
2021/04/20 10:08:00;;;;;;;8.70;6.10;;;13.20;68.50;;;;;;4982403;28;20308;-68
2021/04/20 10:10:55;;;;;;;11.43;8.40;;;14.00;67.40;;;;;;4993870;28;20192;-68
2021/04/20 10:13:41;;;;;;;9.95;7.65;;;15.10;64.40;;;;;;4990527;28;20285;-68
2021/04/20 10:16:21;;;;;;;9.13;7.55;;;15.80;65.00;;;;;;4944654;28;20199;-67
2021/04/20 10:19:13;;;;;;;10.95;7.97;;;16.60;63.70;;;;;;4943855;29;20354;-67
2021/04/20 10:22:00;;;;;;;8.35;7.53;;;17.00;61.20;;;;;;4944522;29;20195;-68
2021/04/20 10:24:27;;;;;;;7.90;7.10;;;16.60;61.00;;;;;;4944147;29;20195;-69
2021/04/20 10:26:59;;;;;;;9.20;8.02;;;16.20;61.30;;;;;;4944929;28;20254;-69
2021/04/20 10:29:38;;;;;;;9.55;7.55;;;15.50;62.70;;;;;;4944176;28;20195;-69
2021/04/20 10:32:10;;;;;;;10.70;8.15;;;14.80;63.60;;;;;;5041274;28;20195;-69
2021/04/20 10:34:37;;;;;;;11.35;7.95;;;14.50;64.60;;;;;;5039079;28;20207;-69
2021/04/20 10:37:04;;;;;;;10.00;8.18;;;14.50;65.00;;;;;;5041803;28;20191;-68
2021/04/20 10:39:30;;;;;;;9.52;7.63;;;15.00;64.80;;;;;;5044082;28;20225;-70
2021/04/20 10:41:57;;;;;;;8.85;7.95;;;15.40;62.90;;;;;;5043138;28;20183;-69
2021/04/20 10:44:31;;;;;;;10.48;7.43;;;16.00;63.00;;;;;;5046108;28;20684;-69
2021/04/20 10:46:58;;;;;;;8.38;7.55;;;16.90;60.30;;;;;;5033502;28;20239;-69
2021/04/20 10:49:28;;;;;;;7.60;6.78;;;17.60;58.40;;;;;;5042369;28;20755;-70
2021/04/20 10:51:58;;;;;;;7.75;6.93;;;18.20;56.70;;;;;;5039551;28;20184;-68
2021/04/20 10:54:38;;;;;;;9.55;7.82;;;19.10;56.80;;;;;;5094190;28;20733;-69
2021/04/20 10:57:04;;;;;;;7.95;7.15;;;19.70;57.30;;;;;;5101049;28;20814;-69
2021/04/20 10:59:35;;;;;;;8.45;7.57;;;19.80;55.20;;;;;;5096975;28;20185;-69
2021/04/20 11:02:10;;;;;;;8.15;7.45;;;19.90;53.20;;;;;;5094985;28;20247;-67
2021/04/20 11:04:38;;;;;;;7.68;6.97;;;20.30;53.00;;;;;;5094569;28;20910;-70
2021/04/20 11:07:27;;;;;;;7.78;7.07;;;20.70;53.00;;;;;;5085679;28;20229;-68
2021/04/20 11:10:08;;;;;;;6.80;6.18;;;20.90;50.30;;;;;;5091106;28;20185;-68
2021/04/20 11:12:41;;;;;;;7.07;6.38;;;21.20;51.50;;;;;;5089853;28;20198;-68
2021/04/20 11:15:08;;;;;;;7.25;6.65;;;21.60;50.90;;;;;;5094660;28;20231;-68
2021/04/20 11:17:47;;;;;;;6.68;6.18;;;21.60;49.50;;;;;;5090852;28;20554;-69
2021/04/20 11:20:42;;;;;;;6.30;5.80;;;21.30;49.60;;;;;;5092256;28;20182;-68
2021/04/20 11:23:11;;;;;;;5.93;5.53;;;21.60;49.00;;;;;;5086073;28;20637;-69
2021/04/20 11:25:55;;;;;;;5.20;4.90;;;21.50;48.40;;;;;;5091302;28;20217;-70
2021/04/20 11:28:26;;;;;;;5.05;4.75;;;21.60;48.20;;;;;;5082331;28;20254;-70
2021/04/20 11:30:55;;;;;;;5.45;5.25;;;21.30;47.40;;;;;;5090718;28;20224;-71
2021/04/20 11:33:58;;;;;;;5.97;5.57;;;21.10;50.10;;;;;;5096441;28;20560;-69
2021/04/20 11:36:27;;;;;;;5.88;5.53;;;21.00;48.10;;;;;;5072382;28;20201;-68
2021/04/20 11:38:57;;;;;;;5.82;5.43;;;20.50;48.90;;;;;;5088462;28;20179;-70
2021/04/20 11:41:47;;;;;;;5.80;5.40;;;20.30;49.80;;;;;;5091166;28;20197;-71
2021/04/20 11:44:15;;;;;;;5.25;4.95;;;20.70;49.10;;;;;;5084563;28;20186;-68
2021/04/20 11:46:46;;;;;;;6.03;5.63;;;21.20;49.80;;;;;;5082671;28;20362;-69
2021/04/20 11:49:22;;;;;;;6.05;5.68;;;22.00;49.30;;;;;;5085864;28;20671;-70
2021/04/20 11:51:48;;;;;;;5.40;5.10;;;22.10;47.80;;;;;;5088589;28;20185;-71
2021/04/20 11:54:25;;;;;;;5.53;5.20;;;22.10;49.30;;;;;;5095576;28;20174;-70
2021/04/20 11:56:53;;;;;;;5.10;4.90;;;21.90;48.50;;;;;;5090817;28;20204;-70
2021/04/20 11:59:20;;;;;;;5.85;5.55;;;21.20;48.80;;;;;;5088849;28;20662;-71
2021/04/20 12:01:48;;;;;;;5.70;5.30;;;20.60;50.80;;;;;;5082859;28;20183;-70
2021/04/20 12:04:15;;;;;;;6.40;5.90;;;20.10;52.10;;;;;;5094773;28;20217;-70
2021/04/20 12:06:51;;;;;;;5.63;5.25;;;20.00;53.30;;;;;;5088447;28;20761;-70
2021/04/20 12:09:25;;;;;;;5.68;5.38;;;19.90;51.40;;;;;;5095523;28;20178;-70
2021/04/20 12:11:55;;;;;;;5.35;4.95;;;19.60;52.50;;;;;;5095372;28;20224;-70
2021/04/20 12:14:24;;;;;;;4.50;4.20;;;19.60;51.90;;;;;;5091774;28;20689;-71
2021/04/20 12:16:53;;;;;;;4.57;4.38;;;19.30;49.50;;;;;;5098870;28;20178;-69
2021/04/20 12:19:24;;;;;;;4.82;4.63;;;18.80;50.90;;;;;;5091028;28;20192;-69
2021/04/20 12:21:57;;;;;;;4.97;4.40;;;18.20;52.10;;;;;;5097898;28;20182;-70
2021/04/20 12:24:25;;;;;;;4.75;4.45;;;18.20;53.70;;;;;;5097385;28;20711;-68
2021/04/20 12:26:56;;;;;;;4.45;4.25;;;18.90;54.60;;;;;;5096913;28;20279;-70
2021/04/20 12:29:30;;;;;;;4.43;4.22;;;19.40;53.90;;;;;;5093666;28;20173;-69
2021/04/20 12:31:56;;;;;;;5.50;5.20;;;19.20;52.30;;;;;;5096484;28;20182;-69
2021/04/20 12:34:29;;;;;;;5.30;4.95;;;18.70;55.00;;;;;;5092875;28;21142;-69
2021/04/20 12:37:00;;;;;;;5.80;5.25;;;18.30;55.50;;;;;;5095780;28;20186;-71
2021/04/20 12:39:33;;;;;;;6.47;6.00;;;17.80;56.90;;;;;;5091070;28;21554;-70
2021/04/20 12:42:01;;;;;;;6.03;5.55;;;17.50;57.90;;;;;;5095622;28;20182;-69
2021/04/20 12:44:40;;;;;;;5.35;5.05;;;17.20;58.60;;;;;;5099698;28;20213;-70
2021/04/20 12:47:08;;;;;;;6.57;5.97;;;16.80;59.00;;;;;;5094684;28;20204;-70
2021/04/20 12:49:36;;;;;;;7.65;6.38;;;16.60;60.40;;;;;;5095878;28;20193;-70
2021/04/20 12:52:09;;;;;;;6.13;5.68;;;16.50;61.10;;;;;;5096295;28;20177;-71
2021/04/20 12:54:37;;;;;;;6.53;5.93;;;16.40;61.60;;;;;;5093979;28;20243;-69
2021/04/20 12:57:07;;;;;;;6.45;5.82;;;16.30;61.50;;;;;;5079454;28;20197;-69
2021/04/20 12:59:35;;;;;;;6.80;6.20;;;16.10;61.90;;;;;;5097509;28;20185;-69
2021/04/20 13:02:01;;;;;;;5.47;5.18;;;15.90;60.90;;;;;;5090114;28;20177;-69
2021/04/20 13:04:33;;;;;;;6.40;5.80;;;15.60;61.10;;;;;;5093741;28;20603;-69
2021/04/20 13:07:01;;;;;;;5.90;5.40;;;15.50;61.90;;;;;;5094816;28;20213;-69
2021/04/20 13:09:39;;;;;;;7.53;5.88;;;15.40;61.90;;;;;;5099116;28;20177;-69
2021/04/20 13:12:10;;;;;;;6.25;5.65;;;15.40;62.70;;;;;;5097171;28;20774;-70
2021/04/20 13:14:39;;;;;;;6.07;5.65;;;15.40;62.50;;;;;;5096887;28;20182;-70
2021/04/20 13:17:06;;;;;;;5.88;5.35;;;15.40;62.70;;;;;;5083010;28;20193;-69
2021/04/20 13:19:38;;;;;;;6.00;5.43;;;15.40;62.80;;;;;;5098022;28;20269;-70
2021/04/20 13:22:05;;;;;;;5.90;5.40;;;15.40;63.30;;;;;;5102637;28;20178;-69
2021/04/20 13:24:33;;;;;;;6.07;5.57;;;15.40;63.80;;;;;;5098460;28;20209;-69
2021/04/20 13:27:00;;;;;;;6.20;5.70;;;15.80;63.60;;;;;;5101028;28;20744;-69